Aviation Digital Data Service (ADDS)

Output produced by METARs form (1920 UTC 18 June 2019)
found at http://www.aviationweather.gov/metar/data/
 
Forecast for: DNMN (MINNA AIRPORT , NG)
Text: TAF DNMN 181530Z 1818/1924 24010KT 9999 BKN013
Forecast period: 1800 to 2200 UTC 18 June 2019
Forecast type: FROM: standard forecast or significant change
Winds: from the WSW (240 degrees) at 12 MPH (10 knots; 5.1 m/s)
Visibility: 6 or more miles 10+ km)
Ceiling: 1300 feet AGL
Clouds: broken clouds at 1300 feet AGL
Weather: no significant weather forecast for this period
Text: PROB30
Forecast period: 1900 to 2200 UTC 18 June 2019
Forecast type: TEMPORARY: The following changes expected for less than half the time period
Visibility: missing
Ceiling: at least 12,000 feet AGL
Clouds: scattered clouds at 1300 feet AGL
few clouds at 2000 feet AGL
Weather: TS  (thunderstorm)
Text: TEMPO 1819/1822 TS SCT013 FEW020CB
Forecast period: 2200 UTC 18 June 2019 to 0000 UTC 20 June 2019
Forecast type: BECOMING: Conditions expected to become as follows by 0000 UTC 19 June 2019
Winds: from the S (170 degrees) at 3 MPH (3 knots; 1.5 m/s)
Visibility: 6 or more miles 10+ km)
Ceiling: unknown
Clouds: missing
Weather: NSW  (no significant weather)